CheckWX is a tool to help pilots better visualize weather data.  It is not intended as a substitute for an official pre-flight weather briefing.

03:56:40 UTC

SCVM METAR
Viña del mar Airport
Viña Del Mar, Chile
Current

57 mins ago

SCVM 180300Z 29005KT CAVOK 18/08 Q1011
Observed
Feb-18 @ 03:00 UTC
Wind
  • 290° at 5 KTS
Visibility
10,000+ meters
Flight Rules
VFR
Cloud Levels
  • Clear skies
Temperature
18°C / 64°F
Dewpoint
C / 46°F
Humidity
52%
Altimeter
29.85" Hg
Pressure
1010.92 hPa
Previous

2 hours ago

SCVM 180200Z 07003KT CAVOK 20/09 Q1011
Observed
Feb-18 @ 02:00 UTC
Wind
  • 070° at 3 KTS
Visibility
10,000+ meters
Flight Rules
VFR
Cloud Levels
  • Clear skies
Temperature
20°C / 68°F
Dewpoint
C / 48°F
Humidity
49%
Altimeter
29.85" Hg
Pressure
1010.92 hPa
Previous

3 hours ago

SCVM 180100Z 22007KT CAVOK 21/10 Q1011
Observed
Feb-18 @ 01:00 UTC
Wind
  • 220° at 7 KTS
Visibility
10,000+ meters
Flight Rules
VFR
Cloud Levels
  • Clear skies
Temperature
21°C / 70°F
Dewpoint
10°C / 50°F
Humidity
50%
Altimeter
29.85" Hg
Pressure
1010.92 hPa